sensor_id;sensor_type;location;lat;lon;timestamp;P1;durP1;ratioP1;P2;durP2;ratioP2
41739;SDS011;27422;52.444;13.300;2023-02-19T00:00:59;7.30;;;3.65;;
41739;SDS011;27422;52.444;13.300;2023-02-19T00:03:25;7.82;;;3.60;;
41739;SDS011;27422;52.444;13.300;2023-02-19T00:05:51;8.40;;;3.80;;
41739;SDS011;27422;52.444;13.300;2023-02-19T00:08:16;7.78;;;4.03;;
41739;SDS011;27422;52.444;13.300;2023-02-19T00:10:42;9.02;;;3.85;;
41739;SDS011;27422;52.444;13.300;2023-02-19T00:13:07;7.03;;;3.67;;
41739;SDS011;27422;52.444;13.300;2023-02-19T00:15:33;7.70;;;3.95;;
41739;SDS011;27422;52.444;13.300;2023-02-19T00:17:58;7.75;;;3.80;;
41739;SDS011;27422;52.444;13.300;2023-02-19T00:20:23;7.60;;;3.60;;
41739;SDS011;27422;52.444;13.300;2023-02-19T00:22:49;7.22;;;3.85;;
41739;SDS011;27422;52.444;13.300;2023-02-19T00:25:36;6.22;;;3.40;;
41739;SDS011;27422;52.444;13.300;2023-02-19T00:28:02;7.30;;;3.60;;
41739;SDS011;27422;52.444;13.300;2023-02-19T00:30:28;6.78;;;3.38;;
41739;SDS011;27422;52.444;13.300;2023-02-19T00:32:53;9.77;;;3.75;;
41739;SDS011;27422;52.444;13.300;2023-02-19T00:35:19;8.48;;;3.88;;
41739;SDS011;27422;52.444;13.300;2023-02-19T00:37:45;8.07;;;4.03;;
41739;SDS011;27422;52.444;13.300;2023-02-19T00:40:10;6.43;;;3.47;;
41739;SDS011;27422;52.444;13.300;2023-02-19T00:42:35;6.38;;;3.55;;
41739;SDS011;27422;52.444;13.300;2023-02-19T00:45:01;7.45;;;3.92;;
41739;SDS011;27422;52.444;13.300;2023-02-19T00:47:26;7.95;;;4.03;;
41739;SDS011;27422;52.444;13.300;2023-02-19T00:49:51;7.80;;;4.07;;
41739;SDS011;27422;52.444;13.300;2023-02-19T00:52:17;8.25;;;4.38;;
41739;SDS011;27422;52.444;13.300;2023-02-19T00:54:42;7.82;;;4.15;;
41739;SDS011;27422;52.444;13.300;2023-02-19T00:57:08;7.72;;;3.83;;
41739;SDS011;27422;52.444;13.300;2023-02-19T00:59:33;8.15;;;4.43;;
41739;SDS011;27422;52.444;13.300;2023-02-19T01:02:00;9.07;;;3.92;;
41739;SDS011;27422;52.444;13.300;2023-02-19T01:04:26;7.75;;;4.07;;
41739;SDS011;27422;52.444;13.300;2023-02-19T01:06:52;8.88;;;4.30;;
41739;SDS011;27422;52.444;13.300;2023-02-19T01:09:17;7.40;;;3.80;;
41739;SDS011;27422;52.444;13.300;2023-02-19T01:11:42;7.88;;;3.65;;
41739;SDS011;27422;52.444;13.300;2023-02-19T01:14:08;7.75;;;4.03;;
41739;SDS011;27422;52.444;13.300;2023-02-19T01:16:34;8.23;;;4.32;;
41739;SDS011;27422;52.444;13.300;2023-02-19T01:19:00;7.53;;;3.88;;
41739;SDS011;27422;52.444;13.300;2023-02-19T01:21:25;7.88;;;4.10;;
41739;SDS011;27422;52.444;13.300;2023-02-19T01:23:52;8.70;;;4.10;;
41739;SDS011;27422;52.444;13.300;2023-02-19T01:26:19;8.30;;;3.90;;
41739;SDS011;27422;52.444;13.300;2023-02-19T01:28:46;8.02;;;3.67;;
41739;SDS011;27422;52.444;13.300;2023-02-19T01:31:13;8.75;;;4.20;;
41739;SDS011;27422;52.444;13.300;2023-02-19T01:33:47;6.85;;;3.88;;
41739;SDS011;27422;52.444;13.300;2023-02-19T01:36:14;7.82;;;3.88;;
41739;SDS011;27422;52.444;13.300;2023-02-19T01:38:39;7.20;;;3.83;;
41739;SDS011;27422;52.444;13.300;2023-02-19T01:41:06;8.63;;;4.13;;
41739;SDS011;27422;52.444;13.300;2023-02-19T01:43:32;8.27;;;4.07;;
41739;SDS011;27422;52.444;13.300;2023-02-19T01:45:59;7.47;;;3.90;;
41739;SDS011;27422;52.444;13.300;2023-02-19T01:53:40;7.35;;;3.78;;
41739;SDS011;27422;52.444;13.300;2023-02-19T01:56:09;7.15;;;3.88;;
41739;SDS011;27422;52.444;13.300;2023-02-19T01:58:36;7.80;;;4.18;;
41739;SDS011;27422;52.444;13.300;2023-02-19T02:01:03;8.50;;;3.70;;
41739;SDS011;27422;52.444;13.300;2023-02-19T02:05:56;8.25;;;3.95;;
41739;SDS011;27422;52.444;13.300;2023-02-19T02:08:25;8.88;;;3.92;;
41739;SDS011;27422;52.444;13.300;2023-02-19T02:11:10;10.00;;;4.38;;
41739;SDS011;27422;52.444;13.300;2023-02-19T02:13:36;10.35;;;4.63;;
41739;SDS011;27422;52.444;13.300;2023-02-19T02:16:05;9.05;;;3.83;;
41739;SDS011;27422;52.444;13.300;2023-02-19T02:18:58;6.10;;;3.17;;
41739;SDS011;27422;52.444;13.300;2023-02-19T02:33:03;5.75;;;3.10;;
41739;SDS011;27422;52.444;13.300;2023-02-19T02:35:40;7.90;;;3.20;;
41739;SDS011;27422;52.444;13.300;2023-02-19T02:38:09;6.20;;;2.65;;
41739;SDS011;27422;52.444;13.300;2023-02-19T02:40:36;7.47;;;2.92;;
41739;SDS011;27422;52.444;13.300;2023-02-19T02:43:04;6.75;;;2.72;;
41739;SDS011;27422;52.444;13.300;2023-02-19T02:45:30;6.30;;;3.10;;
41739;SDS011;27422;52.444;13.300;2023-02-19T02:47:59;6.88;;;2.90;;
41739;SDS011;27422;52.444;13.300;2023-02-19T02:50:31;5.90;;;3.13;;
41739;SDS011;27422;52.444;13.300;2023-02-19T02:53:01;7.07;;;3.10;;
41739;SDS011;27422;52.444;13.300;2023-02-19T02:55:49;7.10;;;3.20;;
41739;SDS011;27422;52.444;13.300;2023-02-19T02:58:16;6.82;;;3.03;;
41739;SDS011;27422;52.444;13.300;2023-02-19T03:00:43;7.75;;;3.58;;
41739;SDS011;27422;52.444;13.300;2023-02-19T03:03:28;6.47;;;3.15;;
41739;SDS011;27422;52.444;13.300;2023-02-19T03:05:56;8.13;;;3.58;;
41739;SDS011;27422;52.444;13.300;2023-02-19T03:10:55;9.15;;;3.50;;
41739;SDS011;27422;52.444;13.300;2023-02-19T03:13:33;8.50;;;3.90;;
41739;SDS011;27422;52.444;13.300;2023-02-19T03:19:40;6.80;;;3.50;;
41739;SDS011;27422;52.444;13.300;2023-02-19T03:22:10;8.02;;;3.10;;
41739;SDS011;27422;52.444;13.300;2023-02-19T03:24:48;7.35;;;3.15;;
41739;SDS011;27422;52.444;13.300;2023-02-19T03:27:34;6.78;;;3.03;;
41739;SDS011;27422;52.444;13.300;2023-02-19T03:30:02;5.93;;;2.70;;
41739;SDS011;27422;52.444;13.300;2023-02-19T03:35:09;4.93;;;2.78;;
41739;SDS011;27422;52.444;13.300;2023-02-19T03:37:38;7.68;;;3.03;;
41739;SDS011;27422;52.444;13.300;2023-02-19T03:40:08;5.47;;;2.35;;
41739;SDS011;27422;52.444;13.300;2023-02-19T03:50:40;8.68;;;2.60;;
41739;SDS011;27422;52.444;13.300;2023-02-19T03:53:29;6.20;;;2.33;;
41739;SDS011;27422;52.444;13.300;2023-02-19T04:00:55;7.18;;;2.47;;
41739;SDS011;27422;52.444;13.300;2023-02-19T04:03:27;6.93;;;2.58;;
41739;SDS011;27422;52.444;13.300;2023-02-19T04:06:01;6.68;;;2.08;;
41739;SDS011;27422;52.444;13.300;2023-02-19T04:08:28;5.47;;;2.40;;
41739;SDS011;27422;52.444;13.300;2023-02-19T04:10:55;6.18;;;2.25;;
41739;SDS011;27422;52.444;13.300;2023-02-19T04:13:24;4.75;;;1.98;;
41739;SDS011;27422;52.444;13.300;2023-02-19T04:15:52;7.07;;;2.25;;
41739;SDS011;27422;52.444;13.300;2023-02-19T04:18:20;5.07;;;2.13;;
41739;SDS011;27422;52.444;13.300;2023-02-19T04:20:47;5.20;;;1.67;;
41739;SDS011;27422;52.444;13.300;2023-02-19T04:23:13;4.68;;;1.77;;
41739;SDS011;27422;52.444;13.300;2023-02-19T04:25:42;6.05;;;2.10;;
41739;SDS011;27422;52.444;13.300;2023-02-19T04:28:09;6.32;;;1.83;;
41739;SDS011;27422;52.444;13.300;2023-02-19T04:33:02;5.15;;;2.10;;
41739;SDS011;27422;52.444;13.300;2023-02-19T04:35:28;5.15;;;2.15;;
41739;SDS011;27422;52.444;13.300;2023-02-19T04:37:53;5.50;;;2.47;;
41739;SDS011;27422;52.444;13.300;2023-02-19T04:40:18;5.72;;;2.13;;
41739;SDS011;27422;52.444;13.300;2023-02-19T04:42:44;7.40;;;2.45;;
41739;SDS011;27422;52.444;13.300;2023-02-19T04:45:09;5.82;;;2.63;;
41739;SDS011;27422;52.444;13.300;2023-02-19T04:47:34;8.18;;;2.58;;
41739;SDS011;27422;52.444;13.300;2023-02-19T04:50:00;6.60;;;2.15;;
41739;SDS011;27422;52.444;13.300;2023-02-19T04:52:25;7.10;;;2.40;;
41739;SDS011;27422;52.444;13.300;2023-02-19T04:54:51;4.43;;;1.83;;
41739;SDS011;27422;52.444;13.300;2023-02-19T04:57:16;10.65;;;2.05;;
41739;SDS011;27422;52.444;13.300;2023-02-19T04:59:41;5.88;;;2.30;;
41739;SDS011;27422;52.444;13.300;2023-02-19T05:02:07;5.43;;;1.90;;
41739;SDS011;27422;52.444;13.300;2023-02-19T05:04:32;8.23;;;2.60;;
41739;SDS011;27422;52.444;13.300;2023-02-19T05:06:58;5.32;;;2.05;;
41739;SDS011;27422;52.444;13.300;2023-02-19T05:09:23;5.80;;;2.33;;
41739;SDS011;27422;52.444;13.300;2023-02-19T05:11:49;6.03;;;2.25;;
41739;SDS011;27422;52.444;13.300;2023-02-19T05:14:14;5.43;;;1.92;;
41739;SDS011;27422;52.444;13.300;2023-02-19T05:16:41;5.45;;;1.90;;
41739;SDS011;27422;52.444;13.300;2023-02-19T05:19:08;5.88;;;2.08;;
41739;SDS011;27422;52.444;13.300;2023-02-19T05:21:35;5.50;;;1.88;;
41739;SDS011;27422;52.444;13.300;2023-02-19T05:24:00;5.47;;;2.05;;
41739;SDS011;27422;52.444;13.300;2023-02-19T05:26:25;5.13;;;1.80;;
41739;SDS011;27422;52.444;13.300;2023-02-19T05:28:51;3.35;;;1.55;;
41739;SDS011;27422;52.444;13.300;2023-02-19T05:31:17;5.53;;;1.83;;
41739;SDS011;27422;52.444;13.300;2023-02-19T05:33:43;4.45;;;1.85;;
41739;SDS011;27422;52.444;13.300;2023-02-19T05:36:12;6.70;;;2.22;;
41739;SDS011;27422;52.444;13.300;2023-02-19T05:38:38;6.05;;;1.80;;
41739;SDS011;27422;52.444;13.300;2023-02-19T05:41:14;4.75;;;1.60;;
41739;SDS011;27422;52.444;13.300;2023-02-19T05:43:44;4.85;;;1.33;;
41739;SDS011;27422;52.444;13.300;2023-02-19T05:46:11;4.47;;;1.45;;
41739;SDS011;27422;52.444;13.300;2023-02-19T05:48:38;3.58;;;1.35;;
41739;SDS011;27422;52.444;13.300;2023-02-19T05:51:05;3.63;;;1.50;;
41739;SDS011;27422;52.444;13.300;2023-02-19T05:53:32;7.78;;;1.67;;
41739;SDS011;27422;52.444;13.300;2023-02-19T05:55:58;4.45;;;1.80;;
41739;SDS011;27422;52.444;13.300;2023-02-19T05:58:24;5.93;;;1.48;;
41739;SDS011;27422;52.444;13.300;2023-02-19T06:00:52;5.80;;;1.88;;
41739;SDS011;27422;52.444;13.300;2023-02-19T06:03:18;3.63;;;1.55;;
41739;SDS011;27422;52.444;13.300;2023-02-19T06:05:44;7.63;;;2.13;;
41739;SDS011;27422;52.444;13.300;2023-02-19T06:08:12;5.97;;;1.90;;
41739;SDS011;27422;52.444;13.300;2023-02-19T06:10:38;3.95;;;2.03;;
41739;SDS011;27422;52.444;13.300;2023-02-19T06:13:07;6.13;;;2.20;;
41739;SDS011;27422;52.444;13.300;2023-02-19T06:15:33;7.32;;;2.83;;
41739;SDS011;27422;52.444;13.300;2023-02-19T06:17:58;7.47;;;2.10;;
41739;SDS011;27422;52.444;13.300;2023-02-19T06:20:24;3.60;;;1.55;;
41739;SDS011;27422;52.444;13.300;2023-02-19T06:22:50;4.85;;;1.80;;
41739;SDS011;27422;52.444;13.300;2023-02-19T06:25:16;5.30;;;2.25;;
41739;SDS011;27422;52.444;13.300;2023-02-19T06:27:41;4.25;;;1.63;;
41739;SDS011;27422;52.444;13.300;2023-02-19T06:30:07;6.65;;;2.05;;
41739;SDS011;27422;52.444;13.300;2023-02-19T06:32:33;3.95;;;1.50;;
41739;SDS011;27422;52.444;13.300;2023-02-19T06:34:59;7.10;;;1.77;;
41739;SDS011;27422;52.444;13.300;2023-02-19T06:37:24;4.50;;;1.60;;
41739;SDS011;27422;52.444;13.300;2023-02-19T06:39:50;6.00;;;1.60;;
41739;SDS011;27422;52.444;13.300;2023-02-19T06:42:15;7.88;;;2.15;;
41739;SDS011;27422;52.444;13.300;2023-02-19T06:44:41;7.32;;;2.78;;
41739;SDS011;27422;52.444;13.300;2023-02-19T06:47:06;5.97;;;1.65;;
41739;SDS011;27422;52.444;13.300;2023-02-19T06:49:31;5.90;;;1.80;;
41739;SDS011;27422;52.444;13.300;2023-02-19T06:51:57;10.50;;;2.03;;
41739;SDS011;27422;52.444;13.300;2023-02-19T06:54:24;4.32;;;1.75;;
41739;SDS011;27422;52.444;13.300;2023-02-19T06:56:50;4.22;;;1.52;;
41739;SDS011;27422;52.444;13.300;2023-02-19T06:59:15;3.45;;;1.42;;
41739;SDS011;27422;52.444;13.300;2023-02-19T07:01:41;4.70;;;1.60;;
41739;SDS011;27422;52.444;13.300;2023-02-19T07:04:07;5.55;;;1.98;;
41739;SDS011;27422;52.444;13.300;2023-02-19T07:06:33;5.28;;;1.63;;
41739;SDS011;27422;52.444;13.300;2023-02-19T07:08:59;5.70;;;1.65;;
41739;SDS011;27422;52.444;13.300;2023-02-19T07:11:25;4.75;;;1.55;;
41739;SDS011;27422;52.444;13.300;2023-02-19T07:13:54;3.88;;;1.70;;
41739;SDS011;27422;52.444;13.300;2023-02-19T07:16:20;5.07;;;2.35;;
41739;SDS011;27422;52.444;13.300;2023-02-19T07:18:46;5.15;;;1.80;;
41739;SDS011;27422;52.444;13.300;2023-02-19T07:21:12;6.07;;;2.05;;
41739;SDS011;27422;52.444;13.300;2023-02-19T07:23:38;7.07;;;2.03;;
41739;SDS011;27422;52.444;13.300;2023-02-19T07:26:07;7.18;;;2.72;;
41739;SDS011;27422;52.444;13.300;2023-02-19T07:28:33;6.13;;;2.25;;
41739;SDS011;27422;52.444;13.300;2023-02-19T07:30:59;5.90;;;1.98;;
41739;SDS011;27422;52.444;13.300;2023-02-19T07:33:27;4.47;;;1.80;;
41739;SDS011;27422;52.444;13.300;2023-02-19T07:35:53;6.50;;;1.50;;
41739;SDS011;27422;52.444;13.300;2023-02-19T07:38:18;4.53;;;1.85;;
41739;SDS011;27422;52.444;13.300;2023-02-19T07:40:52;5.32;;;1.80;;
41739;SDS011;27422;52.444;13.300;2023-02-19T07:43:18;7.20;;;1.80;;
41739;SDS011;27422;52.444;13.300;2023-02-19T07:45:44;9.88;;;1.75;;
41739;SDS011;27422;52.444;13.300;2023-02-19T07:48:10;4.05;;;1.45;;
41739;SDS011;27422;52.444;13.300;2023-02-19T07:50:36;4.45;;;1.40;;
41739;SDS011;27422;52.444;13.300;2023-02-19T07:53:01;5.38;;;1.50;;
41739;SDS011;27422;52.444;13.300;2023-02-19T07:55:27;4.22;;;1.58;;
41739;SDS011;27422;52.444;13.300;2023-02-19T07:57:52;5.45;;;1.70;;
41739;SDS011;27422;52.444;13.300;2023-02-19T08:00:18;4.57;;;1.73;;
41739;SDS011;27422;52.444;13.300;2023-02-19T08:02:44;6.22;;;1.85;;
41739;SDS011;27422;52.444;13.300;2023-02-19T08:05:29;4.38;;;1.95;;
41739;SDS011;27422;52.444;13.300;2023-02-19T08:07:56;4.78;;;1.77;;
41739;SDS011;27422;52.444;13.300;2023-02-19T08:10:34;4.57;;;1.48;;
41739;SDS011;27422;52.444;13.300;2023-02-19T08:13:27;5.00;;;1.60;;
41739;SDS011;27422;52.444;13.300;2023-02-19T08:18:21;5.15;;;1.58;;
41739;SDS011;27422;52.444;13.300;2023-02-19T08:20:47;6.28;;;1.50;;
41739;SDS011;27422;52.444;13.300;2023-02-19T08:23:13;3.03;;;1.20;;
41739;SDS011;27422;52.444;13.300;2023-02-19T08:25:39;5.45;;;1.38;;
41739;SDS011;27422;52.444;13.300;2023-02-19T08:28:05;2.85;;;1.10;;
41739;SDS011;27422;52.444;13.300;2023-02-19T08:30:32;11.52;;;1.88;;
41739;SDS011;27422;52.444;13.300;2023-02-19T08:32:58;6.65;;;1.50;;
41739;SDS011;27422;52.444;13.300;2023-02-19T08:35:24;2.35;;;1.00;;
41739;SDS011;27422;52.444;13.300;2023-02-19T08:37:50;2.95;;;1.10;;
41739;SDS011;27422;52.444;13.300;2023-02-19T08:40:16;3.95;;;1.10;;
41739;SDS011;27422;52.444;13.300;2023-02-19T08:42:41;5.95;;;1.45;;
41739;SDS011;27422;52.444;13.300;2023-02-19T08:45:07;3.60;;;1.20;;
41739;SDS011;27422;52.444;13.300;2023-02-19T08:47:35;4.35;;;1.17;;
41739;SDS011;27422;52.444;13.300;2023-02-19T08:50:02;4.38;;;1.35;;
41739;SDS011;27422;52.444;13.300;2023-02-19T08:52:29;3.53;;;1.17;;
41739;SDS011;27422;52.444;13.300;2023-02-19T08:54:54;3.78;;;1.00;;
41739;SDS011;27422;52.444;13.300;2023-02-19T08:57:20;2.58;;;0.98;;
41739;SDS011;27422;52.444;13.300;2023-02-19T08:59:46;3.65;;;1.10;;
41739;SDS011;27422;52.444;13.300;2023-02-19T09:02:11;3.70;;;1.25;;
41739;SDS011;27422;52.444;13.300;2023-02-19T09:04:37;4.32;;;1.10;;
41739;SDS011;27422;52.444;13.300;2023-02-19T09:07:03;2.70;;;0.88;;
41739;SDS011;27422;52.444;13.300;2023-02-19T09:09:31;3.53;;;1.17;;
41739;SDS011;27422;52.444;13.300;2023-02-19T09:11:58;3.40;;;1.00;;
41739;SDS011;27422;52.444;13.300;2023-02-19T09:14:23;5.20;;;0.80;;
41739;SDS011;27422;52.444;13.300;2023-02-19T09:16:48;4.68;;;0.95;;
41739;SDS011;27422;52.444;13.300;2023-02-19T09:19:14;3.58;;;0.80;;
41739;SDS011;27422;52.444;13.300;2023-02-19T09:21:40;4.25;;;0.80;;
41739;SDS011;27422;52.444;13.300;2023-02-19T09:24:07;4.35;;;0.90;;
41739;SDS011;27422;52.444;13.300;2023-02-19T09:26:33;2.93;;;1.00;;
41739;SDS011;27422;52.444;13.300;2023-02-19T09:28:58;8.45;;;1.00;;
41739;SDS011;27422;52.444;13.300;2023-02-19T09:31:24;4.25;;;0.88;;
41739;SDS011;27422;52.444;13.300;2023-02-19T09:33:49;3.65;;;0.93;;
41739;SDS011;27422;52.444;13.300;2023-02-19T09:36:14;9.52;;;1.35;;
41739;SDS011;27422;52.444;13.300;2023-02-19T09:38:40;4.53;;;0.80;;
41739;SDS011;27422;52.444;13.300;2023-02-19T09:44:09;2.67;;;0.70;;
41739;SDS011;27422;52.444;13.300;2023-02-19T09:46:43;3.90;;;0.70;;
41739;SDS011;27422;52.444;13.300;2023-02-19T09:49:12;2.42;;;0.80;;
41739;SDS011;27422;52.444;13.300;2023-02-19T09:51:40;1.75;;;0.60;;
41739;SDS011;27422;52.444;13.300;2023-02-19T09:54:13;2.83;;;0.70;;
41739;SDS011;27422;52.444;13.300;2023-02-19T09:56:52;3.47;;;0.82;;
41739;SDS011;27422;52.444;13.300;2023-02-19T09:59:25;2.67;;;0.98;;
41739;SDS011;27422;52.444;13.300;2023-02-19T10:01:56;4.18;;;1.13;;
41739;SDS011;27422;52.444;13.300;2023-02-19T10:04:26;4.75;;;0.93;;
41739;SDS011;27422;52.444;13.300;2023-02-19T10:06:51;3.92;;;0.85;;
41739;SDS011;27422;52.444;13.300;2023-02-19T10:09:24;3.92;;;0.98;;
41739;SDS011;27422;52.444;13.300;2023-02-19T10:11:51;3.08;;;0.60;;
41739;SDS011;27422;52.444;13.300;2023-02-19T10:14:20;5.43;;;0.80;;
41739;SDS011;27422;52.444;13.300;2023-02-19T10:16:50;4.50;;;0.95;;
41739;SDS011;27422;52.444;13.300;2023-02-19T10:19:16;4.20;;;0.80;;
41739;SDS011;27422;52.444;13.300;2023-02-19T10:21:41;2.90;;;0.93;;
41739;SDS011;27422;52.444;13.300;2023-02-19T10:24:07;2.50;;;0.60;;
41739;SDS011;27422;52.444;13.300;2023-02-19T10:26:41;3.45;;;0.70;;
41739;SDS011;27422;52.444;13.300;2023-02-19T10:29:06;3.92;;;0.90;;
41739;SDS011;27422;52.444;13.300;2023-02-19T10:31:31;2.10;;;0.50;;
41739;SDS011;27422;52.444;13.300;2023-02-19T10:33:58;4.90;;;1.08;;
41739;SDS011;27422;52.444;13.300;2023-02-19T10:36:32;2.53;;;0.70;;
41739;SDS011;27422;52.444;13.300;2023-02-19T10:39:00;2.28;;;0.65;;
41739;SDS011;27422;52.444;13.300;2023-02-19T10:41:27;5.72;;;1.00;;
41739;SDS011;27422;52.444;13.300;2023-02-19T10:43:54;3.40;;;0.82;;
41739;SDS011;27422;52.444;13.300;2023-02-19T10:46:30;2.70;;;0.88;;
41739;SDS011;27422;52.444;13.300;2023-02-19T10:48:58;3.65;;;0.70;;
41739;SDS011;27422;52.444;13.300;2023-02-19T10:54:15;2.58;;;0.80;;
41739;SDS011;27422;52.444;13.300;2023-02-19T10:56:42;3.95;;;0.88;;
41739;SDS011;27422;52.444;13.300;2023-02-19T11:04:29;4.85;;;0.80;;
41739;SDS011;27422;52.444;13.300;2023-02-19T11:07:10;4.45;;;0.60;;
41739;SDS011;27422;52.444;13.300;2023-02-19T11:09:39;3.35;;;0.73;;
41739;SDS011;27422;52.444;13.300;2023-02-19T11:12:07;3.05;;;0.80;;
41739;SDS011;27422;52.444;13.300;2023-02-19T11:14:32;2.05;;;0.77;;
41739;SDS011;27422;52.444;13.300;2023-02-19T11:16:59;2.33;;;0.40;;
41739;SDS011;27422;52.444;13.300;2023-02-19T11:19:37;3.53;;;0.82;;
41739;SDS011;27422;52.444;13.300;2023-02-19T11:30:46;3.75;;;0.70;;
41739;SDS011;27422;52.444;13.300;2023-02-19T11:33:12;3.05;;;0.57;;
41739;SDS011;27422;52.444;13.300;2023-02-19T11:35:57;2.65;;;0.50;;
41739;SDS011;27422;52.444;13.300;2023-02-19T11:38:45;3.03;;;0.70;;
41739;SDS011;27422;52.444;13.300;2023-02-19T11:54:24;2.85;;;0.60;;
41739;SDS011;27422;52.444;13.300;2023-02-19T12:13:26;3.53;;;0.57;;
41739;SDS011;27422;52.444;13.300;2023-02-19T12:16:02;2.78;;;0.55;;
41739;SDS011;27422;52.444;13.300;2023-02-19T12:18:49;1.77;;;0.38;;
41739;SDS011;27422;52.444;13.300;2023-02-19T12:21:34;2.67;;;0.50;;
41739;SDS011;27422;52.444;13.300;2023-02-19T12:29:54;2.38;;;0.40;;
41739;SDS011;27422;52.444;13.300;2023-02-19T12:43:44;3.70;;;0.52;;
41739;SDS011;27422;52.444;13.300;2023-02-19T12:46:18;2.22;;;0.63;;
41739;SDS011;27422;52.444;13.300;2023-02-19T12:51:24;2.45;;;0.47;;
41739;SDS011;27422;52.444;13.300;2023-02-19T12:53:53;1.88;;;0.45;;
41739;SDS011;27422;52.444;13.300;2023-02-19T12:56:26;1.60;;;0.52;;
41739;SDS011;27422;52.444;13.300;2023-02-19T12:58:57;2.20;;;0.47;;
41739;SDS011;27422;52.444;13.300;2023-02-19T13:01:27;2.20;;;0.70;;
41739;SDS011;27422;52.444;13.300;2023-02-19T13:06:51;2.65;;;0.60;;
41739;SDS011;27422;52.444;13.300;2023-02-19T13:09:25;1.60;;;0.47;;
41739;SDS011;27422;52.444;13.300;2023-02-19T13:12:18;3.67;;;0.73;;
41739;SDS011;27422;52.444;13.300;2023-02-19T13:15:02;2.60;;;0.65;;
41739;SDS011;27422;52.444;13.300;2023-02-19T13:17:39;3.60;;;0.70;;
41739;SDS011;27422;52.444;13.300;2023-02-19T13:20:17;4.75;;;0.70;;
41739;SDS011;27422;52.444;13.300;2023-02-19T13:26:30;1.70;;;0.40;;
41739;SDS011;27422;52.444;13.300;2023-02-19T13:36:57;1.83;;;0.40;;
41739;SDS011;27422;52.444;13.300;2023-02-19T13:39:23;2.10;;;0.40;;
41739;SDS011;27422;52.444;13.300;2023-02-19T13:41:49;0.93;;;0.25;;
41739;SDS011;27422;52.444;13.300;2023-02-19T13:44:19;1.80;;;0.37;;
41739;SDS011;27422;52.444;13.300;2023-02-19T13:46:49;10.60;;;1.02;;
41739;SDS011;27422;52.444;13.300;2023-02-19T13:51:53;2.20;;;0.60;;
41739;SDS011;27422;52.444;13.300;2023-02-19T13:54:32;3.38;;;0.55;;
41739;SDS011;27422;52.444;13.300;2023-02-19T14:00:45;3.00;;;0.53;;
41739;SDS011;27422;52.444;13.300;2023-02-19T14:03:27;2.00;;;0.40;;
41739;SDS011;27422;52.444;13.300;2023-02-19T14:06:01;1.85;;;0.30;;
41739;SDS011;27422;52.444;13.300;2023-02-19T14:08:46;1.55;;;0.50;;
41739;SDS011;27422;52.444;13.300;2023-02-19T14:14:25;3.30;;;0.40;;
41739;SDS011;27422;52.444;13.300;2023-02-19T14:28:43;1.17;;;0.35;;
41739;SDS011;27422;52.444;13.300;2023-02-19T14:34:18;1.55;;;0.50;;
41739;SDS011;27422;52.444;13.300;2023-02-19T14:37:02;1.83;;;0.35;;
41739;SDS011;27422;52.444;13.300;2023-02-19T14:39:39;3.60;;;0.60;;
41739;SDS011;27422;52.444;13.300;2023-02-19T14:42:11;2.25;;;0.50;;
41739;SDS011;27422;52.444;13.300;2023-02-19T14:44:47;1.98;;;0.40;;
41739;SDS011;27422;52.444;13.300;2023-02-19T14:47:22;2.80;;;0.50;;
41739;SDS011;27422;52.444;13.300;2023-02-19T14:49:50;2.67;;;0.40;;
41739;SDS011;27422;52.444;13.300;2023-02-19T14:57:34;2.35;;;0.40;;
41739;SDS011;27422;52.444;13.300;2023-02-19T15:00:22;2.00;;;0.40;;
41739;SDS011;27422;52.444;13.300;2023-02-19T15:02:49;2.95;;;0.63;;
41739;SDS011;27422;52.444;13.300;2023-02-19T15:05:25;1.25;;;0.43;;
41739;SDS011;27422;52.444;13.300;2023-02-19T15:07:53;4.13;;;0.43;;
41739;SDS011;27422;52.444;13.300;2023-02-19T15:12:55;1.10;;;0.40;;
41739;SDS011;27422;52.444;13.300;2023-02-19T15:15:23;1.50;;;0.32;;
41739;SDS011;27422;52.444;13.300;2023-02-19T15:17:51;2.05;;;0.40;;
41739;SDS011;27422;52.444;13.300;2023-02-19T15:20:24;6.18;;;0.80;;
41739;SDS011;27422;52.444;13.300;2023-02-19T15:22:51;2.08;;;0.45;;
41739;SDS011;27422;52.444;13.300;2023-02-19T15:25:19;4.60;;;0.52;;
41739;SDS011;27422;52.444;13.300;2023-02-19T15:27:46;3.22;;;0.50;;
41739;SDS011;27422;52.444;13.300;2023-02-19T15:32:51;2.88;;;0.73;;
41739;SDS011;27422;52.444;13.300;2023-02-19T15:35:21;1.63;;;0.30;;
41739;SDS011;27422;52.444;13.300;2023-02-19T15:37:49;2.10;;;0.45;;
41739;SDS011;27422;52.444;13.300;2023-02-19T15:40:15;4.55;;;0.50;;
41739;SDS011;27422;52.444;13.300;2023-02-19T15:42:44;1.58;;;0.40;;
41739;SDS011;27422;52.444;13.300;2023-02-19T15:45:30;2.97;;;0.52;;
41739;SDS011;27422;52.444;13.300;2023-02-19T15:48:07;2.78;;;0.40;;
41739;SDS011;27422;52.444;13.300;2023-02-19T15:50:38;6.75;;;0.90;;
41739;SDS011;27422;52.444;13.300;2023-02-19T15:53:12;1.08;;;0.50;;
41739;SDS011;27422;52.444;13.300;2023-02-19T16:03:30;1.55;;;0.50;;
41739;SDS011;27422;52.444;13.300;2023-02-19T16:06:00;3.30;;;0.60;;
41739;SDS011;27422;52.444;13.300;2023-02-19T16:08:32;3.25;;;0.70;;
41739;SDS011;27422;52.444;13.300;2023-02-19T16:10:59;3.88;;;0.70;;
41739;SDS011;27422;52.444;13.300;2023-02-19T16:13:30;1.05;;;0.45;;
41739;SDS011;27422;52.444;13.300;2023-02-19T16:16:05;4.68;;;0.70;;
41739;SDS011;27422;52.444;13.300;2023-02-19T16:18:38;2.63;;;0.50;;
41739;SDS011;27422;52.444;13.300;2023-02-19T16:21:11;3.08;;;0.75;;
41739;SDS011;27422;52.444;13.300;2023-02-19T16:23:42;3.65;;;0.65;;
41739;SDS011;27422;52.444;13.300;2023-02-19T16:26:09;4.40;;;0.75;;
41739;SDS011;27422;52.444;13.300;2023-02-19T16:28:35;2.58;;;0.82;;
41739;SDS011;27422;52.444;13.300;2023-02-19T16:31:04;1.20;;;0.52;;
41739;SDS011;27422;52.444;13.300;2023-02-19T16:46:48;4.00;;;0.82;;
41739;SDS011;27422;52.444;13.300;2023-02-19T16:49:16;2.95;;;0.60;;
41739;SDS011;27422;52.444;13.300;2023-02-19T16:51:42;1.73;;;0.47;;
41739;SDS011;27422;52.444;13.300;2023-02-19T16:54:08;3.00;;;0.70;;
41739;SDS011;27422;52.444;13.300;2023-02-19T16:56:35;4.30;;;0.50;;
41739;SDS011;27422;52.444;13.300;2023-02-19T16:59:00;2.90;;;0.63;;
41739;SDS011;27422;52.444;13.300;2023-02-19T17:01:25;4.57;;;0.70;;
41739;SDS011;27422;52.444;13.300;2023-02-19T17:03:52;2.60;;;0.63;;
41739;SDS011;27422;52.444;13.300;2023-02-19T17:06:22;2.78;;;0.55;;
41739;SDS011;27422;52.444;13.300;2023-02-19T17:08:47;3.08;;;0.73;;
41739;SDS011;27422;52.444;13.300;2023-02-19T17:11:13;4.20;;;0.60;;
41739;SDS011;27422;52.444;13.300;2023-02-19T17:13:40;2.30;;;0.85;;
41739;SDS011;27422;52.444;13.300;2023-02-19T17:16:06;3.58;;;1.10;;
41739;SDS011;27422;52.444;13.300;2023-02-19T17:18:31;4.38;;;1.30;;
41739;SDS011;27422;52.444;13.300;2023-02-19T17:21:13;5.65;;;1.30;;
41739;SDS011;27422;52.444;13.300;2023-02-19T17:23:49;3.40;;;1.15;;
41739;SDS011;27422;52.444;13.300;2023-02-19T17:26:16;4.50;;;1.50;;
41739;SDS011;27422;52.444;13.300;2023-02-19T17:28:46;3.70;;;1.50;;
41739;SDS011;27422;52.444;13.300;2023-02-19T17:31:11;4.78;;;1.77;;
41739;SDS011;27422;52.444;13.300;2023-02-19T17:33:38;6.50;;;2.20;;
41739;SDS011;27422;52.444;13.300;2023-02-19T17:36:04;3.33;;;1.30;;
41739;SDS011;27422;52.444;13.300;2023-02-19T17:38:30;3.78;;;1.52;;
41739;SDS011;27422;52.444;13.300;2023-02-19T17:40:55;4.25;;;1.65;;
41739;SDS011;27422;52.444;13.300;2023-02-19T17:43:20;6.82;;;1.75;;
41739;SDS011;27422;52.444;13.300;2023-02-19T17:45:46;4.72;;;2.03;;
41739;SDS011;27422;52.444;13.300;2023-02-19T17:48:11;4.63;;;2.08;;